createdAt,value
2022-12-31T00:01:30.390Z,14.70
2022-12-31T00:03:57.541Z,14.38
2022-12-31T00:06:25.483Z,14.40
2022-12-31T00:08:53.707Z,14.40
2022-12-31T00:11:21.967Z,12.48
2022-12-31T00:13:48.976Z,13.13
2022-12-31T00:16:19.681Z,11.45
2022-12-31T00:18:47.927Z,11.98
2022-12-31T00:21:15.245Z,13.10
2022-12-31T00:23:42.435Z,12.85
2022-12-31T00:26:13.675Z,12.88
2022-12-31T00:28:41.474Z,13.07
2022-12-31T00:31:11.745Z,12.70
2022-12-31T00:33:39.369Z,13.70
2022-12-31T00:36:16.927Z,14.55
2022-12-31T00:38:45.489Z,12.88
2022-12-31T00:41:13.059Z,12.95
2022-12-31T00:43:39.648Z,12.88
2022-12-31T00:46:07.237Z,13.43
2022-12-31T00:48:35.232Z,13.98
2022-12-31T00:51:03.571Z,13.68
2022-12-31T00:53:30.906Z,13.60
2022-12-31T00:56:01.968Z,13.65
2022-12-31T00:58:29.019Z,12.98
2022-12-31T01:00:56.305Z,12.95
2022-12-31T01:03:23.748Z,20.08
2022-12-31T01:05:50.621Z,17.73
2022-12-31T01:08:18.446Z,13.32
2022-12-31T01:11:09.591Z,13.88
2022-12-31T01:13:36.232Z,13.52
2022-12-31T01:16:11.014Z,13.98
2022-12-31T01:18:38.016Z,13.95
2022-12-31T01:21:07.923Z,14.35
2022-12-31T01:23:34.535Z,12.55
2022-12-31T01:26:02.552Z,12.85
2022-12-31T01:28:29.644Z,12.60
2022-12-31T01:30:56.409Z,13.18
2022-12-31T01:33:23.688Z,11.52
2022-12-31T01:35:51.857Z,12.60
2022-12-31T01:38:18.468Z,12.43
2022-12-31T01:40:45.027Z,11.57
2022-12-31T01:43:21.356Z,11.30
2022-12-31T01:45:54.261Z,11.68
2022-12-31T01:48:26.787Z,10.63
2022-12-31T01:50:54.891Z,11.02
2022-12-31T01:53:22.087Z,9.73
2022-12-31T01:55:56.054Z,9.30
2022-12-31T01:58:39.327Z,8.70
2022-12-31T02:01:09.415Z,10.20
2022-12-31T02:03:37.153Z,9.82
2022-12-31T02:06:23.247Z,9.52
2022-12-31T02:08:51.430Z,9.13
2022-12-31T02:11:22.476Z,9.73
2022-12-31T02:13:55.010Z,10.95
2022-12-31T02:16:34.651Z,11.48
2022-12-31T02:19:29.021Z,11.77
2022-12-31T02:22:40.264Z,10.13
2022-12-31T02:25:44.371Z,12.38
2022-12-31T02:28:35.659Z,11.73
2022-12-31T02:31:17.439Z,11.65
2022-12-31T02:33:54.735Z,11.30
2022-12-31T02:36:26.526Z,11.55
2022-12-31T02:38:54.749Z,10.93
2022-12-31T02:41:40.074Z,11.13
2022-12-31T02:44:34.872Z,11.52
2022-12-31T02:47:13.549Z,10.68
2022-12-31T02:50:17.839Z,11.25
2022-12-31T02:53:12.000Z,11.93
2022-12-31T02:56:12.263Z,14.10
2022-12-31T02:59:07.696Z,13.68
2022-12-31T03:01:58.415Z,14.52
2022-12-31T03:04:32.434Z,13.77
2022-12-31T03:07:07.844Z,13.60
2022-12-31T03:09:35.742Z,13.68
2022-12-31T03:12:23.002Z,13.73
2022-12-31T03:14:49.929Z,12.80
2022-12-31T03:17:16.601Z,12.25
2022-12-31T03:20:02.209Z,12.68
2022-12-31T03:22:29.283Z,12.80
2022-12-31T03:25:20.388Z,13.07
2022-12-31T03:27:47.678Z,11.32
2022-12-31T03:30:16.347Z,11.60
2022-12-31T03:32:44.450Z,11.50
2022-12-31T03:35:13.737Z,12.20
2022-12-31T03:37:41.487Z,11.88
2022-12-31T03:40:10.653Z,11.80
2022-12-31T03:42:37.483Z,11.45
2022-12-31T03:45:05.637Z,11.63
2022-12-31T03:47:32.310Z,11.07
2022-12-31T03:49:58.955Z,10.15
2022-12-31T03:52:25.528Z,10.93
2022-12-31T03:54:52.114Z,10.05
2022-12-31T03:57:18.697Z,11.00
2022-12-31T03:59:45.292Z,11.25
2022-12-31T04:02:12.203Z,10.95
2022-12-31T04:04:38.960Z,10.73
2022-12-31T04:07:05.730Z,11.65
2022-12-31T04:09:32.343Z,10.95
2022-12-31T04:11:59.011Z,11.23
2022-12-31T04:14:25.625Z,10.02
2022-12-31T04:16:52.209Z,10.60
2022-12-31T04:19:18.917Z,10.05
2022-12-31T04:21:45.556Z,9.82
2022-12-31T04:24:12.575Z,9.57
2022-12-31T04:26:39.834Z,10.23
2022-12-31T04:29:06.827Z,10.40
2022-12-31T04:31:33.479Z,9.60
2022-12-31T04:34:00.132Z,10.75
2022-12-31T04:36:27.061Z,9.85
2022-12-31T04:38:53.634Z,9.25
2022-12-31T04:41:20.999Z,9.20
2022-12-31T04:43:52.775Z,8.80
2022-12-31T04:46:22.797Z,10.25
2022-12-31T04:48:49.454Z,9.32
2022-12-31T04:51:16.140Z,8.77
2022-12-31T04:53:43.540Z,10.02
2022-12-31T04:56:10.719Z,10.27
2022-12-31T04:58:38.716Z,9.05
2022-12-31T05:01:06.400Z,9.75
2022-12-31T05:03:33.887Z,9.82
2022-12-31T05:06:03.382Z,9.82
2022-12-31T05:08:30.350Z,10.45
2022-12-31T05:10:57.009Z,10.27
2022-12-31T05:13:29.400Z,9.75
2022-12-31T05:15:59.567Z,10.50
2022-12-31T05:18:26.156Z,9.70
2022-12-31T05:20:52.762Z,10.18
2022-12-31T05:23:19.473Z,9.82
2022-12-31T05:25:47.389Z,9.20
2022-12-31T05:28:15.149Z,9.20
2022-12-31T05:30:42.616Z,10.43
2022-12-31T05:33:09.455Z,9.95
2022-12-31T05:35:36.569Z,9.80
2022-12-31T05:38:03.205Z,10.25
2022-12-31T05:40:30.986Z,10.25
2022-12-31T05:42:57.691Z,10.20
2022-12-31T05:45:30.387Z,9.40
2022-12-31T05:47:57.680Z,9.85
2022-12-31T05:50:24.433Z,9.10
2022-12-31T05:52:55.688Z,8.20
2022-12-31T05:55:22.408Z,9.32
2022-12-31T05:57:48.980Z,10.10
2022-12-31T06:00:15.968Z,10.15
2022-12-31T06:02:42.674Z,8.43
2022-12-31T06:05:09.709Z,8.10
2022-12-31T06:07:36.384Z,7.95
2022-12-31T06:10:04.686Z,8.30
2022-12-31T06:12:31.435Z,7.70
2022-12-31T06:14:58.092Z,7.95
2022-12-31T06:17:24.949Z,8.65
2022-12-31T06:19:51.609Z,7.20
2022-12-31T06:22:18.252Z,7.97
2022-12-31T06:24:44.884Z,7.47
2022-12-31T06:27:11.498Z,7.47
2022-12-31T06:29:38.153Z,8.48
2022-12-31T06:32:05.151Z,7.95
2022-12-31T06:34:31.792Z,8.13
2022-12-31T06:36:59.193Z,8.77
2022-12-31T06:39:26.243Z,8.50
2022-12-31T06:41:52.883Z,8.88
2022-12-31T06:44:22.290Z,8.75
2022-12-31T06:46:50.129Z,8.65
2022-12-31T06:49:16.918Z,8.10
2022-12-31T06:51:46.018Z,8.57
2022-12-31T06:54:13.597Z,9.00
2022-12-31T06:56:41.304Z,8.63
2022-12-31T06:59:25.110Z,9.07
2022-12-31T07:02:13.516Z,8.50
2022-12-31T07:05:07.919Z,9.48
2022-12-31T07:07:53.451Z,9.23
2022-12-31T07:10:44.881Z,8.90
2022-12-31T07:13:28.297Z,9.40
2022-12-31T07:16:29.183Z,9.65
2022-12-31T07:19:21.891Z,9.82
2022-12-31T07:21:51.518Z,9.82
2022-12-31T07:24:18.362Z,9.93
2022-12-31T07:26:45.203Z,9.88
2022-12-31T07:29:43.100Z,10.63
2022-12-31T07:32:38.703Z,9.02
2022-12-31T07:35:22.044Z,10.20
2022-12-31T07:40:28.854Z,10.30
2022-12-31T07:43:21.648Z,10.90
2022-12-31T07:45:56.528Z,10.52
2022-12-31T07:48:26.339Z,10.60
2022-12-31T07:50:55.283Z,10.93
2022-12-31T07:53:24.630Z,10.40
2022-12-31T07:55:56.965Z,9.27
2022-12-31T07:58:57.751Z,9.32
2022-12-31T08:01:55.766Z,8.80
2022-12-31T08:04:43.885Z,8.77
2022-12-31T08:07:25.229Z,9.00
2022-12-31T08:10:18.192Z,9.68
2022-12-31T08:12:47.172Z,9.57
2022-12-31T08:15:15.965Z,10.35
2022-12-31T08:17:42.994Z,9.50
2022-12-31T08:20:17.424Z,10.63
2022-12-31T08:23:02.709Z,9.40
2022-12-31T08:26:06.011Z,9.75
2022-12-31T08:29:03.732Z,9.23
2022-12-31T08:31:54.902Z,9.35
2022-12-31T08:34:46.021Z,10.10
2022-12-31T08:37:36.670Z,10.85
2022-12-31T08:40:23.851Z,10.10
2022-12-31T08:43:11.977Z,10.13
2022-12-31T08:45:47.080Z,10.20
2022-12-31T08:48:23.827Z,10.73
2022-12-31T08:50:50.719Z,12.77
2022-12-31T08:53:17.516Z,15.43
2022-12-31T08:55:45.600Z,15.93
2022-12-31T08:58:46.100Z,16.05
2022-12-31T09:01:15.001Z,16.58
2022-12-31T09:04:26.209Z,16.80
2022-12-31T09:07:02.763Z,15.68
2022-12-31T09:09:52.772Z,15.82
2022-12-31T09:12:33.270Z,14.63
2022-12-31T09:15:04.164Z,14.40
2022-12-31T09:17:39.834Z,15.25
2022-12-31T09:20:14.311Z,14.30
2022-12-31T09:22:41.446Z,15.05
2022-12-31T09:25:13.727Z,15.00
2022-12-31T09:27:49.271Z,14.35
2022-12-31T09:30:17.641Z,15.93
2022-12-31T09:33:02.200Z,14.90
2022-12-31T09:35:58.359Z,14.98
2022-12-31T09:38:41.115Z,14.60
2022-12-31T09:41:14.483Z,14.70
2022-12-31T09:44:19.828Z,14.18
2022-12-31T09:47:04.051Z,14.15
2022-12-31T09:49:49.452Z,13.35
2022-12-31T09:52:21.975Z,14.63
2022-12-31T09:54:57.753Z,13.73
2022-12-31T09:57:38.100Z,12.88
2022-12-31T10:00:29.604Z,12.90
2022-12-31T10:03:18.867Z,12.93
2022-12-31T10:06:09.845Z,11.60
2022-12-31T10:09:05.951Z,12.20
2022-12-31T10:11:41.334Z,11.75
2022-12-31T10:14:48.600Z,11.75
2022-12-31T10:17:30.518Z,12.63
2022-12-31T10:19:57.107Z,11.75
2022-12-31T10:22:57.474Z,11.85
2022-12-31T10:25:48.817Z,12.90
2022-12-31T10:28:29.824Z,11.55
2022-12-31T10:31:07.165Z,11.13
2022-12-31T10:33:43.408Z,13.55
2022-12-31T10:36:19.892Z,13.63
2022-12-31T10:39:10.466Z,11.98
2022-12-31T10:44:49.495Z,12.38
2022-12-31T10:47:27.862Z,12.25
2022-12-31T10:50:31.596Z,12.75
2022-12-31T10:55:58.816Z,13.65
2022-12-31T10:58:53.254Z,12.68
2022-12-31T11:01:40.520Z,12.40
2022-12-31T11:04:25.901Z,11.77
2022-12-31T11:07:22.163Z,11.63
2022-12-31T11:10:09.619Z,9.88
2022-12-31T11:13:02.979Z,8.68
2022-12-31T11:15:50.034Z,9.73
2022-12-31T11:18:55.218Z,8.70
2022-12-31T11:21:35.214Z,9.10
2022-12-31T11:24:13.509Z,8.25
2022-12-31T11:27:01.143Z,8.20
2022-12-31T11:29:46.239Z,9.05
2022-12-31T11:32:21.940Z,7.07
2022-12-31T11:34:48.474Z,7.00
2022-12-31T11:37:39.800Z,6.72
2022-12-31T11:40:39.114Z,5.95
2022-12-31T11:43:11.946Z,6.30
2022-12-31T11:48:30.556Z,5.95
2022-12-31T11:51:19.524Z,6.15
2022-12-31T11:54:01.303Z,5.78
2022-12-31T11:56:40.192Z,6.30
2022-12-31T11:59:18.686Z,6.00
2022-12-31T12:02:00.639Z,6.93
2022-12-31T12:04:27.947Z,6.20
2022-12-31T12:06:54.532Z,6.80
2022-12-31T12:09:28.357Z,6.28
2022-12-31T12:12:01.468Z,6.93
2022-12-31T12:14:42.672Z,6.30
2022-12-31T12:17:35.624Z,6.55
2022-12-31T12:20:13.363Z,6.05
2022-12-31T12:22:49.742Z,5.80
2022-12-31T12:25:22.193Z,6.22
2022-12-31T12:27:49.082Z,5.25
2022-12-31T12:30:20.287Z,5.80
2022-12-31T12:33:00.140Z,5.68
2022-12-31T12:35:33.206Z,5.57
2022-12-31T12:38:08.403Z,6.00
2022-12-31T12:40:35.751Z,5.82
2022-12-31T12:43:03.419Z,5.05
2022-12-31T12:45:45.206Z,5.43
2022-12-31T12:48:32.717Z,5.88
2022-12-31T12:51:00.405Z,5.47
2022-12-31T12:53:55.315Z,5.55
2022-12-31T12:56:45.571Z,5.57
2022-12-31T12:59:35.559Z,5.90
2022-12-31T13:02:28.309Z,5.68
2022-12-31T13:05:16.720Z,6.15
2022-12-31T13:07:52.440Z,5.65
2022-12-31T13:10:33.071Z,6.10
2022-12-31T13:13:43.657Z,5.90
2022-12-31T13:16:28.385Z,6.53
2022-12-31T13:19:10.115Z,6.65
2022-12-31T13:21:50.394Z,7.03
2022-12-31T13:24:34.551Z,6.80
2022-12-31T13:27:12.856Z,5.30
2022-12-31T13:29:42.062Z,5.68
2022-12-31T13:32:15.574Z,6.28
2022-12-31T13:34:46.218Z,5.85
2022-12-31T13:37:26.787Z,5.93
2022-12-31T13:40:03.333Z,5.90
2022-12-31T13:42:40.451Z,6.03
2022-12-31T13:45:20.811Z,5.35
2022-12-31T13:47:54.177Z,6.07
2022-12-31T13:50:37.475Z,7.50
2022-12-31T13:53:14.035Z,7.25
2022-12-31T13:55:45.021Z,7.40
2022-12-31T13:58:38.521Z,7.28
2022-12-31T14:01:32.111Z,7.53
2022-12-31T14:04:07.973Z,7.50
2022-12-31T14:06:49.645Z,8.23
2022-12-31T14:09:25.027Z,7.53
2022-12-31T14:11:51.619Z,7.75
2022-12-31T14:14:45.983Z,7.20
2022-12-31T14:17:31.033Z,8.18
2022-12-31T14:20:18.379Z,7.65
2022-12-31T14:23:24.997Z,7.55
2022-12-31T14:25:58.071Z,7.50
2022-12-31T14:28:35.656Z,7.80
2022-12-31T14:31:17.094Z,7.90
2022-12-31T14:33:46.769Z,7.28
2022-12-31T14:36:40.688Z,7.45
2022-12-31T14:39:13.316Z,7.45
2022-12-31T14:41:53.197Z,7.75
2022-12-31T14:44:42.025Z,7.18
2022-12-31T14:47:23.804Z,7.45
2022-12-31T14:50:03.824Z,7.43
2022-12-31T14:52:36.189Z,7.63
2022-12-31T14:55:22.906Z,7.65
2022-12-31T15:00:38.989Z,8.25
2022-12-31T15:03:06.999Z,8.18
2022-12-31T15:05:36.592Z,8.98
2022-12-31T15:08:19.413Z,9.60
2022-12-31T15:11:07.616Z,10.80
2022-12-31T15:13:34.155Z,9.95
2022-12-31T15:16:19.474Z,9.40
2022-12-31T15:18:57.952Z,11.02
2022-12-31T15:21:33.415Z,10.80
2022-12-31T15:24:00.717Z,11.23
2022-12-31T15:26:33.636Z,10.75
2022-12-31T15:29:02.944Z,9.07
2022-12-31T15:31:32.009Z,8.52
2022-12-31T15:34:06.313Z,9.57
2022-12-31T15:36:36.008Z,11.90
2022-12-31T15:39:11.851Z,11.68
2022-12-31T15:41:46.013Z,13.68
2022-12-31T15:44:51.886Z,13.30
2022-12-31T15:47:36.881Z,14.65
2022-12-31T15:50:06.544Z,13.70
2022-12-31T15:52:43.776Z,15.50
2022-12-31T15:55:26.225Z,13.80
2022-12-31T15:57:58.267Z,13.48
2022-12-31T16:00:24.919Z,13.25
2022-12-31T16:02:55.273Z,13.95
2022-12-31T16:05:27.326Z,15.05
2022-12-31T16:07:58.521Z,16.65
2022-12-31T16:10:29.361Z,17.38
2022-12-31T16:12:58.109Z,16.40
2022-12-31T16:15:31.434Z,17.17
2022-12-31T16:18:04.564Z,17.48
2022-12-31T16:23:01.716Z,16.90
2022-12-31T16:25:32.024Z,16.52
2022-12-31T16:28:01.169Z,15.55
2022-12-31T16:30:30.567Z,16.35
2022-12-31T16:33:03.401Z,17.10
2022-12-31T16:35:32.788Z,17.15
2022-12-31T16:38:18.966Z,18.02
2022-12-31T16:41:28.039Z,21.02
2022-12-31T16:43:55.069Z,21.08
2022-12-31T16:46:21.753Z,20.48
2022-12-31T16:49:00.578Z,17.45
2022-12-31T16:51:32.412Z,16.85
2022-12-31T16:54:01.817Z,13.18
2022-12-31T16:56:39.476Z,14.80
2022-12-31T16:59:16.426Z,13.90
2022-12-31T17:01:43.931Z,12.95
2022-12-31T17:04:14.083Z,12.40
2022-12-31T17:06:42.677Z,11.80
2022-12-31T17:09:13.870Z,12.00
2022-12-31T17:11:55.188Z,13.23
2022-12-31T17:14:25.163Z,16.88
2022-12-31T17:17:03.701Z,17.13
2022-12-31T17:19:45.887Z,15.82
2022-12-31T17:22:35.908Z,16.25
2022-12-31T17:25:09.003Z,15.65
2022-12-31T17:27:36.763Z,17.05
2022-12-31T17:30:27.621Z,17.85
2022-12-31T17:33:02.158Z,15.75
2022-12-31T17:35:37.318Z,13.18
2022-12-31T17:38:32.161Z,12.60
2022-12-31T17:41:05.360Z,12.30
2022-12-31T17:43:35.441Z,12.63
2022-12-31T17:46:03.705Z,12.65
2022-12-31T17:48:31.322Z,13.13
2022-12-31T17:51:00.728Z,12.55
2022-12-31T17:53:27.629Z,14.60
2022-12-31T17:56:04.761Z,14.98
2022-12-31T17:58:50.064Z,17.80
2022-12-31T18:01:20.231Z,17.13
2022-12-31T18:03:50.223Z,17.30
2022-12-31T18:06:19.314Z,17.55
2022-12-31T18:08:46.065Z,19.67
2022-12-31T18:11:18.408Z,19.35
2022-12-31T18:13:45.388Z,19.33
2022-12-31T18:16:12.082Z,19.63
2022-12-31T18:18:40.136Z,19.92
2022-12-31T18:21:13.232Z,19.75
2022-12-31T18:26:17.659Z,21.25
2022-12-31T18:28:44.737Z,23.52
2022-12-31T18:31:20.265Z,25.33
2022-12-31T18:33:47.353Z,20.10
2022-12-31T18:36:15.716Z,20.13
2022-12-31T18:38:42.798Z,19.08
2022-12-31T18:41:17.890Z,18.85
2022-12-31T18:43:44.940Z,18.27
2022-12-31T18:46:16.769Z,18.98
2022-12-31T18:48:44.256Z,18.70
2022-12-31T18:51:14.686Z,21.65
2022-12-31T18:53:41.321Z,24.17
2022-12-31T18:56:20.335Z,24.10
2022-12-31T18:58:47.766Z,25.98
2022-12-31T19:01:41.117Z,27.40
2022-12-31T19:04:13.871Z,26.95
2022-12-31T19:06:40.735Z,27.23
2022-12-31T19:09:23.680Z,29.13
2022-12-31T19:11:53.910Z,34.72
2022-12-31T19:14:24.197Z,36.33
2022-12-31T19:16:53.185Z,37.13
2022-12-31T19:19:20.431Z,37.50
2022-12-31T19:21:47.418Z,36.10
2022-12-31T19:24:26.640Z,37.47
2022-12-31T19:26:54.474Z,36.63
2022-12-31T19:29:26.663Z,36.75
2022-12-31T19:31:53.528Z,37.33
2022-12-31T19:34:20.166Z,38.22
2022-12-31T19:36:47.064Z,50.13
2022-12-31T19:39:17.023Z,42.13
2022-12-31T19:41:44.233Z,47.55
2022-12-31T19:44:16.030Z,50.40
2022-12-31T19:46:42.672Z,53.10
2022-12-31T19:49:13.895Z,52.40
2022-12-31T19:51:41.223Z,54.80
2022-12-31T19:54:08.420Z,55.00
2022-12-31T19:56:35.240Z,47.78
2022-12-31T19:59:09.407Z,43.78
2022-12-31T20:01:36.472Z,42.38
2022-12-31T20:04:03.326Z,44.20
2022-12-31T20:06:30.061Z,41.38
2022-12-31T20:08:56.608Z,42.45
2022-12-31T20:11:24.566Z,45.28
2022-12-31T20:13:53.576Z,44.85
2022-12-31T20:16:23.442Z,45.30
2022-12-31T20:18:50.665Z,47.30
2022-12-31T20:21:20.275Z,46.33
2022-12-31T20:23:48.942Z,47.63
2022-12-31T20:26:16.151Z,47.45
2022-12-31T20:28:42.831Z,47.22
2022-12-31T20:31:13.353Z,45.90
2022-12-31T20:33:40.604Z,43.83
2022-12-31T20:36:10.671Z,46.17
2022-12-31T20:38:37.517Z,60.47
2022-12-31T20:41:09.693Z,58.20
2022-12-31T20:43:37.696Z,58.40
2022-12-31T20:46:14.799Z,57.47
2022-12-31T20:48:42.625Z,60.70
2022-12-31T20:51:09.193Z,59.38
2022-12-31T20:53:35.991Z,57.50
2022-12-31T20:56:07.440Z,51.17
2022-12-31T20:58:34.605Z,49.08
2022-12-31T21:01:01.426Z,46.95
2022-12-31T21:04:03.635Z,50.80
2022-12-31T21:06:16.031Z,66.53
2022-12-31T21:08:43.498Z,68.30
2022-12-31T21:11:28.828Z,63.72
2022-12-31T21:13:56.982Z,65.22
2022-12-31T21:16:24.225Z,71.45
2022-12-31T21:18:50.855Z,72.43
2022-12-31T21:21:17.517Z,73.03
2022-12-31T21:23:44.241Z,75.82
2022-12-31T21:26:10.922Z,75.65
2022-12-31T21:28:37.510Z,83.43
2022-12-31T21:31:06.616Z,80.07
2022-12-31T21:33:34.091Z,68.13
2022-12-31T21:36:04.519Z,67.25
2022-12-31T21:38:31.742Z,71.95
2022-12-31T21:41:03.116Z,69.82
2022-12-31T21:43:29.756Z,77.88
2022-12-31T21:46:07.281Z,86.65
2022-12-31T21:48:34.358Z,81.45
2022-12-31T21:51:09.263Z,76.68
2022-12-31T21:53:37.392Z,71.47
2022-12-31T21:56:16.116Z,81.10
2022-12-31T21:58:44.609Z,76.07
2022-12-31T22:01:38.909Z,77.30
2022-12-31T22:04:07.894Z,70.93
2022-12-31T22:06:39.620Z,69.63
2022-12-31T22:09:06.196Z,66.57
2022-12-31T22:11:32.779Z,57.80
2022-12-31T22:13:59.403Z,54.03
2022-12-31T22:16:26.044Z,52.92
2022-12-31T22:18:55.674Z,55.30
2022-12-31T22:21:24.529Z,50.65
2022-12-31T22:23:53.723Z,51.08
2022-12-31T22:26:23.826Z,46.97
2022-12-31T22:28:51.154Z,50.17
2022-12-31T22:31:30.212Z,49.92
2022-12-31T22:33:58.052Z,56.45
2022-12-31T22:36:24.928Z,55.72
2022-12-31T22:38:57.208Z,57.60
2022-12-31T22:41:25.180Z,58.33
2022-12-31T22:44:02.229Z,58.78
2022-12-31T22:46:30.081Z,56.88
2022-12-31T22:48:58.733Z,58.97
2022-12-31T22:51:54.525Z,58.08
2022-12-31T22:54:13.539Z,56.25
2022-12-31T22:56:40.180Z,56.60
2022-12-31T22:59:06.770Z,50.63
2022-12-31T23:01:34.542Z,56.60
2022-12-31T23:04:01.264Z,56.95
2022-12-31T23:06:28.993Z,70.80
2022-12-31T23:09:15.703Z,67.88
2022-12-31T23:11:45.624Z,69.95
2022-12-31T23:14:35.755Z,61.95
2022-12-31T23:17:29.414Z,58.83
2022-12-31T23:20:17.541Z,53.60
2022-12-31T23:23:02.456Z,58.10
2022-12-31T23:25:51.028Z,170.20
2022-12-31T23:28:21.247Z,146.18
2022-12-31T23:30:48.280Z,171.25
2022-12-31T23:33:20.595Z,138.77
2022-12-31T23:35:47.459Z,128.25
2022-12-31T23:38:16.811Z,129.00
2022-12-31T23:40:43.893Z,119.25
2022-12-31T23:43:20.009Z,121.70
2022-12-31T23:45:46.618Z,135.75
2022-12-31T23:48:13.233Z,150.85
2022-12-31T23:50:40.720Z,141.10
2022-12-31T23:53:07.306Z,146.80
2022-12-31T23:55:33.919Z,152.65
2022-12-31T23:58:00.499Z,164.25
